Time;durP1;ratioP1;P1;durP2;ratioP2;P2;SDS_P1;SDS_P2;PMS_P1;PMS_P2;Temp;Humidity;BMP_temperature;BMP_pressure;BME280_temperature;BME280_humidity;BME280_pressure;Samples;Min_cycle;Max_cycle;Signal;HPM_P1;HPM_P2
2022/04/02 00:01:41;;;;;;;2.23;1.97;;;;;;;0.08;71.05;100418.16;5008711;28;20045;-78
2022/04/02 00:04:09;;;;;;;9.93;2.10;;;;;;;0.12;70.62;100423.44;5029219;28;20137;-77
2022/04/02 00:06:37;;;;;;;5.77;1.90;;;;;;;0.13;70.87;100417.41;5007217;28;20041;-78
2022/04/02 00:09:04;;;;;;;3.23;2.03;;;;;;;0.16;71.14;100411.38;5026456;28;20132;-78
2022/04/02 00:11:45;;;;;;;4.20;2.00;;;;;;;-0.02;71.70;100415.38;4998165;28;20135;-78
2022/04/02 00:14:12;;;;;;;4.13;2.00;;;;;;;0.10;71.72;100409.56;5020466;28;20036;-75
2022/04/02 00:16:40;;;;;;;4.37;2.00;;;;;;;0.03;71.75;100404.22;5026124;28;20492;-78
2022/04/02 00:19:13;;;;;;;3.97;2.70;;;;;;;0.03;71.63;100412.03;5012296;28;20127;-76
2022/04/02 00:21:40;;;;;;;4.67;2.00;;;;;;;0.03;71.95;100412.91;5009320;28;20461;-78
2022/04/02 00:24:08;;;;;;;2.67;1.73;;;;;;;-0.03;71.99;100411.03;5013033;28;20114;-78
2022/04/02 00:26:35;;;;;;;5.10;1.90;;;;;;;0.02;72.05;100415.47;5009863;28;20370;-78
2022/04/02 00:29:07;;;;;;;4.10;2.03;;;;;;;0.06;71.96;100412.06;4992885;28;20069;-78
2022/04/02 00:31:33;;;;;;;6.20;2.07;;;;;;;0.07;72.18;100417.28;4998248;28;20036;-79
2022/04/02 00:34:00;;;;;;;3.33;1.80;;;;;;;-0.06;72.40;100420.53;5043944;28;20716;-79
2022/04/02 00:36:27;;;;;;;4.43;2.10;;;;;;;-0.04;72.50;100429.22;5017120;28;20055;-79
2022/04/02 00:38:55;;;;;;;2.30;1.73;;;;;;;-0.10;72.40;100419.56;5028317;28;20037;-78
2022/04/02 00:41:21;;;;;;;3.93;1.80;;;;;;;-0.11;73.18;100420.41;5013664;28;20044;-77
2022/04/02 00:43:56;;;;;;;4.60;1.83;;;;;;;-0.13;73.25;100423.84;5013340;28;20044;-76
2022/04/02 00:46:23;;;;;;;3.17;1.97;;;;;;;-0.25;73.00;100421.00;5005550;28;20068;-78
2022/04/02 00:48:50;;;;;;;2.97;2.00;;;;;;;-0.22;74.00;100427.13;5016238;28;20057;-77
2022/04/02 00:51:19;;;;;;;2.10;1.90;;;;;;;-0.22;74.12;100427.13;4998024;28;20049;-77
2022/04/02 00:53:50;;;;;;;4.37;2.07;;;;;;;-0.25;74.43;100424.50;4989022;28;20049;-77
2022/04/02 00:56:18;;;;;;;4.97;1.90;;;;;;;-0.20;74.36;100421.97;4992763;28;20056;-76
2022/04/02 00:58:48;;;;;;;4.37;2.97;;;;;;;-0.19;74.55;100424.59;4993073;28;20051;-77
2022/04/02 01:01:16;;;;;;;4.40;1.47;;;;;;;-0.21;74.60;100426.28;5030654;28;20049;-79
2022/04/02 01:03:43;;;;;;;3.93;1.83;;;;;;;-0.39;75.30;100425.94;5028894;28;20053;-77
2022/04/02 01:06:12;;;;;;;4.00;1.87;;;;;;;-0.35;76.02;100425.13;5028529;28;20048;-76
2022/04/02 01:08:44;;;;;;;4.73;1.97;;;;;;;-0.25;75.11;100431.38;5022818;28;20037;-78
2022/04/02 01:11:11;;;;;;;4.97;2.10;;;;;;;-0.32;75.74;100435.59;5022496;28;20037;-77
2022/04/02 01:13:38;;;;;;;4.40;1.87;;;;;;;-0.37;75.41;100437.22;5007347;28;20654;-77
2022/04/02 01:16:08;;;;;;;3.73;1.90;;;;;;;-0.34;75.07;100437.25;5012940;28;20874;-76
2022/04/02 01:18:34;;;;;;;4.13;1.67;;;;;;;-0.38;76.30;100436.34;5001330;28;20044;-77
2022/04/02 01:21:04;;;;;;;2.40;1.80;;;;;;;-0.31;75.90;100440.81;5011533;28;20041;-77
2022/04/02 01:23:30;;;;;;;2.90;1.93;;;;;;;-0.39;76.55;100438.91;5014502;28;20042;-76
2022/04/02 01:26:01;;;;;;;3.13;1.90;;;;;;;-0.41;76.61;100433.69;5013665;28;20155;-76
2022/04/02 01:28:34;;;;;;;2.60;1.90;;;;;;;-0.47;76.49;100449.13;5017315;28;20045;-76
2022/04/02 01:31:06;;;;;;;3.17;1.60;;;;;;;-0.51;77.01;100443.84;5015699;28;20041;-77
2022/04/02 01:33:34;;;;;;;4.43;2.03;;;;;;;-0.59;76.92;100448.88;5038806;28;20040;-76
2022/04/02 01:36:04;;;;;;;4.87;2.13;;;;;;;-0.59;77.14;100441.06;4992673;28;20449;-77
2022/04/02 01:38:30;;;;;;;5.10;2.17;;;;;;;-0.61;77.86;100440.19;5019186;28;20121;-78
2022/04/02 01:41:00;;;;;;;4.00;1.70;;;;;;;-0.53;77.99;100450.72;5024359;28;20490;-77
2022/04/02 01:43:28;;;;;;;3.00;1.80;;;;;;;-0.64;77.87;100447.91;5025889;28;20033;-78
2022/04/02 01:45:57;;;;;;;4.33;2.10;;;;;;;-0.65;78.05;100443.56;4999975;28;20041;-78
2022/04/02 01:48:27;;;;;;;3.40;1.90;;;;;;;-0.73;78.44;100443.41;4999188;28;20045;-76
2022/04/02 01:50:54;;;;;;;2.83;1.73;;;;;;;-0.76;78.35;100447.63;5017365;28;20100;-77
2022/04/02 01:53:24;;;;;;;3.50;1.80;;;;;;;-0.83;79.11;100454.44;5014082;28;20098;-76
2022/04/02 01:55:53;;;;;;;4.57;2.27;;;;;;;-0.92;78.35;100454.22;5032396;28;20049;-77
2022/04/02 01:58:23;;;;;;;2.93;1.67;;;;;;;-0.88;78.58;100461.22;5017975;28;20044;-77
2022/04/02 02:00:49;;;;;;;4.73;2.40;;;;;;;-0.96;79.07;100455.84;5030440;28;20042;-77
2022/04/02 02:03:17;;;;;;;7.13;1.80;;;;;;;-1.05;79.64;100457.38;5015763;28;20120;-76
2022/04/02 02:05:45;;;;;;;4.30;1.77;;;;;;;-1.03;80.22;100459.16;5034823;28;20513;-77
2022/04/02 02:08:14;;;;;;;6.50;2.00;;;;;;;-1.07;80.57;100459.06;5037787;28;20040;-78
2022/04/02 02:10:40;;;;;;;2.37;1.70;;;;;;;-1.10;81.04;100467.63;5015575;28;20041;-77
2022/04/02 02:13:10;;;;;;;5.20;2.07;;;;;;;-1.18;80.43;100462.28;5021587;28;20045;-77
2022/04/02 02:15:39;;;;;;;4.10;2.07;;;;;;;-1.23;80.66;100456.09;5033665;28;20494;-77
2022/04/02 02:18:06;;;;;;;3.00;1.70;;;;;;;-1.23;80.50;100460.41;5018982;28;20541;-78
2022/04/02 02:20:34;;;;;;;3.43;1.83;;;;;;;-1.35;80.28;100447.13;5029609;28;20461;-77
2022/04/02 02:23:01;;;;;;;3.43;2.17;;;;;;;-1.39;81.54;100455.69;5009056;28;20545;-77
2022/04/02 02:25:28;;;;;;;4.00;1.97;;;;;;;-1.38;81.58;100454.84;5012559;28;20045;-77
2022/04/02 02:27:55;;;;;;;2.33;1.60;;;;;;;-1.44;81.36;100452.97;5034336;28;20509;-77
2022/04/02 02:30:25;;;;;;;4.10;2.00;;;;;;;-1.45;81.52;100456.41;5060953;28;20172;-77
2022/04/02 02:35:49;;;;;;;5.00;1.90;;;;;;;-1.45;82.06;100462.47;5012325;28;20076;-77
2022/04/02 02:35:49;;;;;;;3.77;1.83;;;;;;;-1.57;82.67;100462.19;5026159;28;20047;-77
2022/04/02 02:38:19;;;;;;;3.93;1.70;;;;;;;-1.50;82.70;100461.50;5001355;28;20806;-78
2022/04/02 02:40:47;;;;;;;2.63;1.73;;;;;;;-1.48;83.65;100456.34;5016280;28;20042;-77
2022/04/02 02:43:15;;;;;;;3.90;2.50;;;;;;;-1.61;83.13;100462.03;5021609;28;21534;-77
2022/04/02 02:45:43;;;;;;;4.27;2.60;;;;;;;-1.65;82.80;100463.69;5017789;28;20045;-78
2022/04/02 02:48:12;;;;;;;3.67;1.80;;;;;;;-1.70;82.39;100455.78;5031090;28;20060;-77
2022/04/02 02:50:39;;;;;;;3.37;1.87;;;;;;;-1.70;82.75;100466.16;5026154;28;20049;-78
2022/04/02 02:53:06;;;;;;;3.80;2.10;;;;;;;-1.74;83.96;100466.06;5012046;28;20041;-77
2022/04/02 02:55:32;;;;;;;5.77;2.13;;;;;;;-1.72;84.46;100470.44;5049388;28;20033;-77
2022/04/02 02:58:02;;;;;;;3.53;1.87;;;;;;;-1.81;83.82;100471.91;5028679;28;20047;-78
2022/04/02 03:00:29;;;;;;;5.27;1.60;;;;;;;-1.85;83.28;100477.81;5015255;28;20053;-79
2022/04/02 03:02:56;;;;;;;4.40;2.40;;;;;;;-1.87;84.97;100482.09;5020084;28;20044;-78
2022/04/02 03:05:23;;;;;;;4.80;1.97;;;;;;;-1.89;84.91;100476.88;5044753;28;20488;-78
2022/04/02 03:07:50;;;;;;;3.30;1.73;;;;;;;-1.92;85.42;100476.81;5010536;28;20387;-78
2022/04/02 03:10:18;;;;;;;3.17;1.80;;;;;;;-1.88;85.09;100483.81;5027497;28;20128;-78
2022/04/02 03:12:46;;;;;;;2.87;1.90;;;;;;;-1.94;85.29;100483.63;5015451;28;20037;-77
2022/04/02 03:15:15;;;;;;;3.60;1.60;;;;;;;-2.01;85.22;100477.44;5008276;28;20047;-77
2022/04/02 03:17:43;;;;;;;3.50;1.73;;;;;;;-2.01;86.22;100484.31;5038888;28;20266;-78
2022/04/02 03:20:14;;;;;;;3.00;1.87;;;;;;;-2.02;86.02;100479.97;5023453;28;20040;-79
2022/04/02 03:22:43;;;;;;;5.33;2.17;;;;;;;-2.03;85.89;100475.63;4995159;28;20048;-78
2022/04/02 03:25:12;;;;;;;2.27;1.60;;;;;;;-2.08;86.30;100478.09;5025143;28;20121;-79
2022/04/02 03:27:39;;;;;;;3.20;1.90;;;;;;;-2.12;85.85;100476.25;5045346;28;20049;-77
2022/04/02 03:30:09;;;;;;;3.23;1.80;;;;;;;-2.09;87.31;100481.53;5029278;28;20044;-79
2022/04/02 03:32:36;;;;;;;5.63;1.90;;;;;;;-2.18;86.15;100475.22;5031924;28;20056;-77
2022/04/02 03:35:03;;;;;;;5.63;2.17;;;;;;;-2.16;87.80;100481.31;5021753;28;20044;-78
2022/04/02 03:37:30;;;;;;;2.80;1.60;;;;;;;-2.25;87.00;100475.88;5027207;28;20045;-77
2022/04/02 03:39:57;;;;;;;4.70;2.07;;;;;;;-2.35;87.80;100474.75;5012804;28;20041;-77
2022/04/02 03:42:25;;;;;;;4.47;1.90;;;;;;;-2.37;87.93;100474.69;5013534;28;20040;-80
2022/04/02 03:44:52;;;;;;;3.07;1.70;;;;;;;-2.31;88.03;100474.88;5012471;28;20137;-79
2022/04/02 03:47:22;;;;;;;2.07;1.80;;;;;;;-2.40;88.49;100482.38;5018630;28;20052;-78
2022/04/02 03:49:51;;;;;;;4.13;2.03;;;;;;;-2.48;88.67;100485.56;5026514;28;20048;-78
2022/04/02 03:52:18;;;;;;;2.70;2.03;;;;;;;-2.53;88.10;100484.53;5005499;28;20072;-77
2022/04/02 03:54:45;;;;;;;2.30;1.43;;;;;;;-2.52;88.50;100487.19;5014701;28;20045;-78
2022/04/02 03:57:13;;;;;;;4.03;1.73;;;;;;;-2.53;88.80;100492.31;5038506;28;20068;-77
2022/04/02 03:59:43;;;;;;;4.53;2.10;;;;;;;-2.58;89.77;100492.19;5011530;28;20033;-78
2022/04/02 04:02:13;;;;;;;3.37;1.80;;;;;;;-2.58;89.76;100492.19;5018909;28;20480;-77
2022/04/02 04:04:40;;;;;;;3.40;2.17;;;;;;;-2.60;90.02;100488.69;5027066;28;20032;-78
2022/04/02 04:07:07;;;;;;;3.63;1.97;;;;;;;-2.69;89.73;100496.13;5025910;28;20083;-79
2022/04/02 04:09:36;;;;;;;5.53;2.30;;;;;;;-2.63;89.93;100496.34;5023955;28;20033;-78
2022/04/02 04:12:03;;;;;;;4.77;2.70;;;;;;;-2.66;89.32;100499.72;5030323;28;20048;-77
2022/04/02 04:14:30;;;;;;;3.60;1.93;;;;;;;-2.73;89.91;100491.72;5017376;28;20033;-78
2022/04/02 04:16:56;;;;;;;4.40;2.10;;;;;;;-2.77;88.85;100495.06;5022302;28;20090;-79
2022/04/02 04:19:26;;;;;;;3.23;2.10;;;;;;;-2.82;89.53;100502.66;5046630;28;20045;-77
2022/04/02 04:21:53;;;;;;;4.07;2.03;;;;;;;-2.77;90.27;100501.09;5014039;28;20049;-77
2022/04/02 04:24:20;;;;;;;3.73;1.87;;;;;;;-2.84;91.49;100509.50;5006996;28;20609;-78
2022/04/02 04:26:47;;;;;;;3.50;1.70;;;;;;;-2.88;91.08;100510.22;5009841;28;20061;-77
2022/04/02 04:29:13;;;;;;;5.33;2.20;;;;;;;-2.94;91.28;100510.06;5013417;28;20047;-77
2022/04/02 04:31:40;;;;;;;3.33;1.70;;;;;;;-2.93;91.64;100517.84;5010599;28;20037;-78
2022/04/02 04:34:07;;;;;;;3.23;1.87;;;;;;;-2.96;91.86;100519.44;5028046;28;20116;-79
2022/04/02 04:36:34;;;;;;;4.30;1.83;;;;;;;-2.96;92.00;100514.28;5025789;28;20033;-78
2022/04/02 04:39:01;;;;;;;3.93;2.13;;;;;;;-3.01;92.24;100515.84;5023969;28;20067;-78
2022/04/02 04:41:32;;;;;;;5.40;1.60;;;;;;;-3.02;92.09;100520.16;5015116;28;20426;-78
2022/04/02 04:43:58;;;;;;;3.97;2.23;;;;;;;-3.02;92.28;100524.44;5049327;28;20037;-78
2022/04/02 04:46:25;;;;;;;3.80;2.13;;;;;;;-3.12;91.63;100531.00;5035934;28;20048;-78
2022/04/02 04:48:52;;;;;;;4.43;2.27;;;;;;;-3.03;92.62;100533.00;5022168;28;20091;-78
2022/04/02 04:51:19;;;;;;;3.37;1.57;;;;;;;-3.00;92.51;100533.09;5011878;28;20110;-78
2022/04/02 04:53:46;;;;;;;3.43;2.03;;;;;;;-2.99;93.23;100537.44;5029386;28;20122;-78
2022/04/02 04:56:13;;;;;;;3.87;2.10;;;;;;;-3.05;93.12;100535.53;5011254;28;20139;-78
2022/04/02 04:58:39;;;;;;;2.80;1.37;;;;;;;-3.04;92.84;100532.13;5031809;28;20043;-78
2022/04/02 05:01:08;;;;;;;4.67;2.07;;;;;;;-3.05;93.54;100535.53;5015203;28;20048;-78
2022/04/02 05:03:35;;;;;;;3.93;2.00;;;;;;;-2.98;93.04;100532.31;4998873;28;20067;-78
2022/04/02 05:06:02;;;;;;;6.53;2.43;;;;;;;-3.02;92.86;100534.78;5031056;28;20045;-78
2022/04/02 05:08:31;;;;;;;4.20;1.80;;;;;;;-3.01;93.73;100539.13;5035987;28;20045;-78
2022/04/02 05:10:59;;;;;;;5.60;1.90;;;;;;;-2.91;93.60;100539.44;5014111;28;20506;-79
2022/04/02 05:13:27;;;;;;;4.07;1.80;;;;;;;-2.88;94.07;100541.25;5016131;28;20044;-78
2022/04/02 05:15:54;;;;;;;8.37;2.23;;;;;;;-2.83;93.80;100543.16;5026454;28;20050;-78
2022/04/02 05:18:20;;;;;;;4.43;2.53;;;;;;;-2.72;93.37;100551.22;5008149;28;20137;-78
2022/04/02 05:20:47;;;;;;;2.97;2.00;;;;;;;-2.65;92.75;100547.13;5009422;28;20103;-78
2022/04/02 05:23:14;;;;;;;4.27;1.93;;;;;;;-2.59;93.10;100548.19;5026061;28;20041;-78
2022/04/02 05:25:41;;;;;;;3.67;2.30;;;;;;;-2.51;93.41;100550.16;5012071;28;20041;-78
2022/04/02 05:28:09;;;;;;;4.17;1.97;;;;;;;-2.51;92.93;100555.31;5013992;28;20041;-78
2022/04/02 05:30:40;;;;;;;3.00;1.70;;;;;;;-2.46;93.03;100552.03;5025673;28;20045;-78
2022/04/02 05:33:07;;;;;;;4.97;2.00;;;;;;;-2.29;93.63;100552.53;5040698;28;20037;-78
2022/04/02 05:35:53;;;;;;;3.53;2.00;;;;;;;-2.16;93.42;100549.47;5025316;28;20518;-79
2022/04/02 05:38:20;;;;;;;3.80;1.70;;;;;;;-2.05;93.07;100554.94;5041246;28;20541;-78
2022/04/02 05:40:47;;;;;;;2.93;2.13;;;;;;;-1.99;93.03;100557.72;4996032;28;20045;-78
2022/04/02 05:43:13;;;;;;;3.30;2.00;;;;;;;-1.86;93.70;100556.34;5031947;28;20041;-79
2022/04/02 05:45:41;;;;;;;5.30;2.10;;;;;;;-1.85;92.67;100553.81;5032268;28;20045;-79
2022/04/02 05:48:08;;;;;;;3.90;1.90;;;;;;;-1.77;93.68;100562.63;5014715;28;20128;-79
2022/04/02 05:50:34;;;;;;;2.13;1.60;;;;;;;-1.63;92.78;100562.16;5027663;28;20456;-78
2022/04/02 05:53:04;;;;;;;3.37;2.03;;;;;;;-1.46;92.51;100556.59;5027305;28;20045;-79
2022/04/02 05:55:32;;;;;;;3.30;1.80;;;;;;;-1.38;91.97;100559.38;5025745;28;20038;-79
2022/04/02 05:57:59;;;;;;;2.73;1.77;;;;;;;-1.22;91.46;100555.47;5011998;28;20409;-79
2022/04/02 06:00:26;;;;;;;3.43;1.90;;;;;;;-1.12;91.94;100565.22;5019017;28;20037;-78
2022/04/02 06:03:02;;;;;;;4.17;1.93;;;;;;;-1.05;91.51;100566.25;5012885;28;20086;-78
2022/04/02 06:05:28;;;;;;;3.90;1.87;;;;;;;-0.85;92.63;100572.78;5016842;28;20067;-78
2022/04/02 06:07:55;;;;;;;4.60;2.37;;;;;;;-0.73;91.94;100567.91;5012605;28;20045;-79
2022/04/02 06:10:22;;;;;;;2.57;2.00;;;;;;;-0.57;92.16;100570.03;5008559;28;20067;-79
2022/04/02 06:12:50;;;;;;;3.77;2.00;;;;;;;-0.38;90.86;100567.84;5040841;28;20056;-78
2022/04/02 06:15:18;;;;;;;5.77;1.90;;;;;;;-0.11;89.45;100565.84;5018716;28;20453;-78
2022/04/02 06:17:44;;;;;;;6.67;2.47;;;;;;;-0.06;90.34;100568.53;5034497;28;20137;-78
2022/04/02 06:20:13;;;;;;;3.10;1.60;;;;;;;0.31;84.87;100574.47;5027499;28;20060;-78
2022/04/02 06:22:40;;;;;;;9.93;2.10;;;;;;;0.46;84.03;100575.63;4994204;28;20042;-78
2022/04/02 06:25:07;;;;;;;3.93;2.20;;;;;;;0.76;81.44;100575.34;5025742;28;20099;-78
2022/04/02 06:27:44;;;;;;;3.70;2.20;;;;;;;0.92;79.99;100573.84;5013336;28;20525;-78
2022/04/02 06:30:14;;;;;;;4.13;1.80;;;;;;;1.04;77.64;100579.28;5012468;28;20768;-78
2022/04/02 06:32:41;;;;;;;5.93;2.00;;;;;;;1.30;78.31;100590.09;5033524;28;20048;-78
2022/04/02 06:35:07;;;;;;;3.27;2.10;;;;;;;1.33;78.52;100584.94;5018217;28;20041;-78
2022/04/02 06:37:36;;;;;;;3.70;2.60;;;;;;;1.51;75.53;100589.53;5078065;22;20085;-77
2022/04/02 06:40:05;;;;;;;3.30;1.70;;;;;;;1.66;74.03;100588.91;4979399;28;20046;-77
2022/04/02 06:42:32;;;;;;;2.53;1.60;;;;;;;1.68;73.24;100593.31;4968804;28;20096;-77
2022/04/02 06:44:59;;;;;;;2.30;1.70;;;;;;;1.86;71.25;100591.81;4974528;28;20109;-77
2022/04/02 06:47:28;;;;;;;2.70;1.77;;;;;;;1.99;71.59;100604.13;4980472;28;20042;-78
2022/04/02 06:49:55;;;;;;;4.97;1.50;;;;;;;2.01;70.24;100598.94;4949690;28;20046;-78
2022/04/02 06:52:22;;;;;;;4.30;1.70;;;;;;;2.14;68.18;100609.53;4947632;28;20270;-78
2022/04/02 06:54:49;;;;;;;4.87;1.83;;;;;;;2.19;66.00;100597.47;4984947;28;20035;-77
2022/04/02 06:57:19;;;;;;;2.37;1.77;;;;;;;2.09;66.57;100594.69;4967944;28;20043;-78
2022/04/02 06:59:46;;;;;;;3.43;2.13;;;;;;;2.22;64.95;100601.81;4978497;28;20054;-77
2022/04/02 07:02:13;;;;;;;31.47;6.20;;;;;;;2.28;63.83;100596.69;4967711;28;20035;-77
2022/04/02 07:04:41;;;;;;;2.90;1.43;;;;;;;2.34;61.99;100599.34;4973987;28;20042;-78
2022/04/02 07:07:08;;;;;;;2.57;1.40;;;;;;;2.46;62.68;100604.72;4971395;28;20129;-80
2022/04/02 07:09:35;;;;;;;3.90;1.80;;;;;;;2.63;62.70;100604.03;4972025;28;20054;-78
2022/04/02 07:12:02;;;;;;;5.03;1.80;;;;;;;2.63;60.42;100606.66;4979513;28;20034;-78
2022/04/02 07:14:29;;;;;;;3.07;1.63;;;;;;;2.70;60.18;100600.66;4966473;28;20041;-79
2022/04/02 07:16:56;;;;;;;3.13;2.33;;;;;;;2.84;61.27;100612.06;4936243;28;20426;-80
2022/04/02 07:19:23;;;;;;;2.77;1.53;;;;;;;2.87;60.58;100616.47;4944965;28;20066;-79
2022/04/02 07:21:51;;;;;;;4.63;1.93;;;;;;;2.79;59.69;100621.59;4967861;28;20038;-78
2022/04/02 07:24:18;;;;;;;2.80;1.60;;;;;;;2.82;58.63;100617.28;4951375;28;20035;-78
2022/04/02 07:26:46;;;;;;;3.33;1.90;;;;;;;2.90;60.59;100611.28;4980212;28;20046;-78
2022/04/02 07:29:15;;;;;;;5.13;1.70;;;;;;;2.96;58.33;100616.56;4964084;28;20046;-80
2022/04/02 07:31:45;;;;;;;3.67;2.00;;;;;;;2.77;57.55;100610.25;4957700;28;20051;-79
2022/04/02 07:34:19;;;;;;;3.05;1.52;;;;;;;2.86;57.90;100614.69;4990282;28;20045;-79
2022/04/02 07:37:16;;;;;;;3.63;1.40;;;;;;;2.74;57.46;100608.50;4974136;28;20042;-80
2022/04/02 07:40:09;;;;;;;1.80;1.40;;;;;;;2.70;57.47;100619.78;4971689;28;20050;-79
2022/04/02 07:42:46;;;;;;;2.47;1.60;;;;;;;2.88;57.01;100623.44;4977575;28;20053;-79
2022/04/02 07:45:19;;;;;;;3.47;1.80;;;;;;;2.97;58.76;100633.97;4985185;28;20164;-79
2022/04/02 07:47:54;;;;;;;3.83;1.50;;;;;;;3.19;57.53;100615.00;4975433;28;20046;-78
2022/04/02 07:50:23;;;;;;;3.37;1.83;;;;;;;3.26;57.95;100623.78;4976064;28;20049;-79
2022/04/02 07:52:52;;;;;;;3.83;1.77;;;;;;;3.39;55.54;100615.19;4960139;28;20504;-79
2022/04/02 07:55:20;;;;;;;4.70;1.53;;;;;;;3.78;56.56;100614.59;4981991;28;20047;-79
2022/04/02 07:57:49;;;;;;;3.90;1.57;;;;;;;4.18;53.70;100612.19;4972412;28;20039;-79
2022/04/02 08:00:19;;;;;;;5.83;2.07;;;;;;;4.28;51.38;100610.50;4987416;28;20138;-79
2022/04/02 08:02:49;;;;;;;3.27;1.80;;;;;;;4.52;50.26;100618.44;4974657;28;20042;-79
2022/04/02 08:05:18;;;;;;;6.20;1.37;;;;;;;4.38;47.92;100617.53;4970589;28;20523;-79
2022/04/02 08:07:49;;;;;;;3.40;1.40;;;;;;;4.55;49.32;100605.38;4960511;28;20415;-79
2022/04/02 08:10:19;;;;;;;2.00;1.60;;;;;;;4.56;50.01;100625.44;4970675;28;20065;-79
2022/04/02 08:12:46;;;;;;;2.43;1.50;;;;;;;4.39;48.76;100629.75;5008032;28;20041;-78
2022/04/02 08:15:19;;;;;;;1.77;1.30;;;;;;;4.00;49.19;100641.75;4970919;28;20072;-79
2022/04/02 08:17:55;;;;;;;3.03;1.70;;;;;;;4.16;50.46;100638.34;4971821;28;20077;-80
2022/04/02 08:20:23;;;;;;;2.83;1.40;;;;;;;4.12;49.11;100643.53;4942851;28;20065;-79
2022/04/02 08:22:51;;;;;;;1.63;1.50;;;;;;;4.01;50.94;100635.63;4974107;28;20038;-80
2022/04/02 08:25:18;;;;;;;5.20;1.50;;;;;;;4.18;49.91;100639.22;4973364;28;20129;-79
2022/04/02 08:28:07;;;;;;;3.10;1.50;;;;;;;4.38;49.88;100638.47;4986184;28;20064;-79
2022/04/02 08:30:57;;;;;;;2.43;1.67;;;;;;;4.30;50.05;100653.25;4972595;28;20129;-79
2022/04/02 08:33:30;;;;;;;2.20;1.50;;;;;;;4.20;49.45;100647.97;4954864;28;20057;-80
2022/04/02 08:36:06;;;;;;;3.53;1.70;;;;;;;4.18;49.98;100656.66;4978285;28;20154;-80
2022/04/02 08:38:42;;;;;;;6.53;1.60;;;;;;;4.10;49.32;100658.34;4973277;28;20049;-78
2022/04/02 08:41:27;;;;;;;3.53;1.83;;;;;;;4.15;49.31;100652.28;4959749;28;20117;-80
2022/04/02 08:44:18;;;;;;;2.90;1.40;;;;;;;4.29;50.19;100654.97;4967670;28;20055;-79
2022/04/02 08:47:12;;;;;;;2.93;1.50;;;;;;;4.05;48.10;100652.22;4983708;28;20085;-79
2022/04/02 08:49:42;;;;;;;3.97;1.88;;;;;;;3.85;49.47;100649.47;4952390;28;20058;-80
2022/04/02 08:52:15;;;;;;;3.27;2.40;;;;;;;3.94;51.14;100660.00;4953981;28;20177;-79
2022/04/02 08:55:07;;;;;;;116.23;17.13;;;;;;;4.08;49.93;100660.09;4967791;28;20571;-79
2022/04/02 08:58:07;;;;;;;7.30;1.57;;;;;;;4.09;48.96;100662.69;5002723;28;20049;-79
2022/04/02 09:00:39;;;;;;;3.07;1.90;;;;;;;3.82;48.84;100666.03;4980022;28;20051;-79
2022/04/02 09:03:15;;;;;;;2.53;1.50;;;;;;;3.92;48.98;100657.38;4972490;28;20038;-79
2022/04/02 09:06:01;;;;;;;6.53;2.33;;;;;;;3.92;49.92;100657.38;4990569;28;20074;-78
2022/04/02 09:08:55;;;;;;;2.23;1.73;;;;;;;4.21;50.26;100664.53;4970208;28;20038;-78
2022/04/02 09:11:24;;;;;;;3.53;1.60;;;;;;;4.59;48.80;100655.97;4974678;28;20451;-79
2022/04/02 09:13:51;;;;;;;4.60;1.70;;;;;;;5.05;48.29;100657.88;4947244;28;20047;-80
2022/04/02 09:16:26;;;;;;;2.73;1.50;;;;;;;5.24;46.71;100650.91;4970518;28;20511;-78
2022/04/02 09:19:10;;;;;;;2.00;1.80;;;;;;;5.76;44.62;100653.50;4938328;28;20471;-79
2022/04/02 09:22:05;;;;;;;4.53;1.90;;;;;;;5.21;44.81;100643.06;4978821;28;20042;-79
2022/04/02 09:24:35;;;;;;;2.23;1.47;;;;;;;5.81;43.92;100643.03;4956298;28;20043;-79
2022/04/02 09:27:28;;;;;;;13.27;3.03;;;;;;;6.32;44.41;100636.81;4978270;28;20035;-79
2022/04/02 09:30:07;;;;;;;2.03;1.57;;;;;;;6.73;40.97;100646.28;4973814;28;20043;-79
2022/04/02 09:33:06;;;;;;;4.77;1.70;;;;;;;6.65;40.87;100638.44;4976994;28;20043;-81
2022/04/02 09:35:36;;;;;;;3.10;1.77;;;;;;;6.84;40.65;100654.09;4984461;28;20045;-79
2022/04/02 09:38:13;;;;;;;2.53;1.83;;;;;;;6.80;40.38;100645.34;4974582;28;20056;-81
2022/04/02 09:40:46;;;;;;;2.80;1.70;;;;;;;6.63;40.92;100634.91;4954071;28;20416;-79
2022/04/02 09:43:30;;;;;;;4.40;1.83;;;;;;;7.19;41.54;100636.34;4972441;28;20527;-81
2022/04/02 09:46:18;;;;;;;64.27;7.57;;;;;;;7.08;41.09;100634.69;4965456;28;20062;-80
2022/04/02 09:48:58;;;;;;;2.60;1.50;;;;;;;6.95;40.30;100653.13;4984273;28;20065;-80
2022/04/02 09:51:32;;;;;;;1.65;1.30;;;;;;;6.87;41.13;100644.44;4986422;28;20042;-80
2022/04/02 09:54:03;;;;;;;2.15;1.80;;;;;;;6.98;42.15;100632.13;4985455;28;20096;-80
2022/04/02 09:56:40;;;;;;;3.80;1.50;;;;;;;6.57;42.93;100645.47;4972403;28;20053;-78
2022/04/02 09:59:19;;;;;;;3.70;1.90;;;;;;;6.04;45.57;100646.50;4956680;28;20051;-79
2022/04/02 10:02:03;;;;;;;1.87;1.37;;;;;;;6.08;45.86;100639.50;4981031;28;20042;-79
2022/04/02 10:04:43;;;;;;;5.15;1.70;;;;;;;5.34;47.46;100657.00;4946924;28;20114;-79
2022/04/02 10:07:31;;;;;;;27.20;3.83;;;;;;;4.95;48.84;100656.06;4971962;28;20053;-79
2022/04/02 10:10:00;;;;;;;4.07;1.70;;;;;;;4.98;49.97;100660.47;4955508;28;20051;-79
2022/04/02 10:12:28;;;;;;;2.50;2.03;;;;;;;4.80;51.03;100661.28;4974081;28;20039;-78
2022/04/02 10:14:57;;;;;;;4.53;2.17;;;;;;;4.79;52.25;100660.41;4975023;28;20050;-79
2022/04/02 10:17:28;;;;;;;6.80;2.57;;;;;;;4.41;55.25;100651.53;4963385;28;20133;-79
2022/04/02 10:19:57;;;;;;;3.17;1.50;;;;;;;3.82;59.37;100680.81;4961708;28;20042;-78
2022/04/02 10:22:41;;;;;;;4.00;2.07;;;;;;;3.92;59.99;100685.25;4971348;28;20045;-79
2022/04/02 10:25:10;;;;;;;3.58;2.20;;;;;;;3.95;60.83;100686.16;4975046;28;20041;-80
2022/04/02 10:27:40;;;;;;;3.20;1.93;;;;;;;3.78;62.13;100685.13;4971180;28;20046;-78
2022/04/02 10:30:14;;;;;;;3.33;1.83;;;;;;;3.83;62.96;100686.06;4987747;28;20038;-78
2022/04/02 10:32:53;;;;;;;3.33;1.57;;;;;;;4.12;63.13;100685.38;4956398;28;20038;-80
2022/04/02 10:35:22;;;;;;;3.53;2.30;;;;;;;4.43;62.28;100675.97;4963791;28;20042;-79
2022/04/02 10:38:04;;;;;;;4.93;2.10;;;;;;;4.59;61.08;100671.66;4969644;28;20050;-79
2022/04/02 10:40:33;;;;;;;2.87;1.80;;;;;;;4.91;60.25;100666.53;4989287;28;20034;-79
2022/04/02 10:43:06;;;;;;;5.03;2.37;;;;;;;4.93;60.26;100672.66;4966974;28;20427;-79
2022/04/02 10:45:36;;;;;;;3.13;1.80;;;;;;;5.41;59.98;100669.25;4971715;28;20514;-78
2022/04/02 10:48:11;;;;;;;2.67;2.20;;;;;;;5.57;58.49;100664.91;4943990;28;20035;-80
2022/04/02 10:50:40;;;;;;;3.50;2.30;;;;;;;5.69;58.76;100664.88;4964030;28;20491;-79
2022/04/02 10:53:13;;;;;;;4.50;2.63;;;;;;;5.75;58.30;100666.63;4967345;28;20898;-78
2022/04/02 10:55:48;;;;;;;;;;;;;;;5.39;58.68;100662.28;4955557;28;20065;-79
2022/04/02 10:58:14;;;;;;;4.70;2.40;;;;;;;5.08;60.12;100681.41;4958405;28;19926;-82
2022/04/02 11:00:45;;;;;;;2.83;1.80;;;;;;;4.68;61.45;100682.16;4977081;28;20038;-78
2022/04/02 11:03:36;;;;;;;13.63;2.70;;;;;;;3.97;67.07;100698.38;4986484;28;20047;-81
2022/04/02 11:06:03;;;;;;;4.93;2.57;;;;;;;4.23;69.19;100702.88;4977455;28;20046;-81
2022/04/02 11:08:31;;;;;;;5.10;1.87;;;;;;;4.27;70.99;100697.66;4980379;28;20092;-80
2022/04/02 11:11:32;;;;;;;5.40;2.07;;;;;;;4.21;63.33;100691.56;4973815;28;20094;-80
2022/04/02 11:14:55;;;;;;;2.83;1.63;;;;;;;4.15;65.70;100695.88;5002930;28;20043;-80
2022/04/02 11:19:53;;;;;;;3.67;1.60;;;;;;;4.24;61.41;100693.31;4993634;28;20047;-79
2022/04/02 11:21:56;;;;;;;3.63;1.45;;;;;;;4.63;60.09;100692.63;4998618;28;20054;-80
2022/04/02 11:24:25;;;;;;;3.87;2.23;;;;;;;4.54;58.44;100692.59;4984597;28;20133;-79
2022/04/02 11:26:55;;;;;;;4.30;1.83;;;;;;;4.63;60.12;100686.53;4968279;28;20042;-78
2022/04/02 11:29:24;;;;;;;6.03;1.77;;;;;;;4.86;60.86;100689.22;4946313;28;20299;-79
2022/04/02 11:31:53;;;;;;;2.87;1.70;;;;;;;4.87;63.00;100685.72;4970670;28;20043;-80
2022/04/02 11:34:23;;;;;;;2.70;1.50;;;;;;;4.72;63.34;100678.72;4978316;28;20056;-78
2022/04/02 11:36:59;;;;;;;2.80;1.80;;;;;;;4.99;62.21;100691.88;4978012;28;20571;-78
2022/04/02 11:39:48;;;;;;;2.80;1.37;;;;;;;5.06;57.22;100683.16;4964474;28;20045;-78
2022/04/02 11:42:16;;;;;;;2.60;1.80;;;;;;;5.05;59.34;100680.56;4968416;28;20050;-78
2022/04/02 11:44:52;;;;;;;3.43;1.93;;;;;;;5.09;59.57;100682.28;4959541;28;20050;-79
2022/04/02 11:47:29;;;;;;;2.93;1.67;;;;;;;4.74;57.66;100692.66;4972324;28;20051;-78
2022/04/02 11:50:05;;;;;;;4.87;1.90;;;;;;;4.25;58.28;100702.88;4988774;28;20050;-78